Погода Мацуковщинана неделю

Минская область, Белоруссия

22 - 28 мая
  • 22мая
    Сегодня
    +12°
    +22°
    Небольшая облачность и лёгкий дождик
    ВремяПогодаТемператураВлажностьДавлениеВетер, м/сВероятность осадков
    00:00Пасмурно, дождь+13°C92 %742 мм2.5 м/с26 %
    03:00Небольшая облачность+13°C96 %742 мм2.0 м/с34 %
    06:00Практически безоблачно+12°C94 %742 мм4.6 м/с31 %
    09:00Практически безоблачно+17°C80 %743 мм4.1 м/с2 %
    12:00Облачно с прояснениями+20°C64 %743 мм5.1 м/с23 %
    15:00Небольшая облачность и лёгкий дождик+21°C57 %742 мм5.2 м/с35 %
    18:00Небольшая облачность+21°C60 %742 мм4.5 м/с28 %
    21:00Небольшая облачность+18°C75 %742 мм3.3 м/с25 %
  • 23мая
    Четверг
    +12°
    +23°
    Небольшая облачность
    ВремяПогодаТемператураВлажностьДавлениеВетер, м/сВероятность осадков
    00:00Небольшая облачность+14°C88 %743 мм3.5 м/с6 %
    03:00Практически безоблачно+13°C96 %743 мм3.5 м/с2 %
    06:00Практически безоблачно+12°C95 %743 мм3.8 м/с4 %
    09:00Практически безоблачно+18°C81 %744 мм4.8 м/с3 %
    12:00Практически безоблачно+21°C63 %745 мм6.0 м/с23 %
    15:00Небольшая облачность+22°C59 %745 мм6.4 м/с43 %
    18:00Облачно с прояснениями, небольшой дождь+21°C57 %745 мм6.0 м/с50 %
    21:00Практически безоблачно+18°C73 %746 мм4.7 м/с14 %
  • 24мая
    Пятница
    +11°
    +24°
    Практически безоблачно
    ВремяПогодаТемператураВлажностьДавлениеВетер, м/сВероятность осадков
    00:00Ясно и безоблачно+15°C80 %746 мм4.9 м/с2 %
    03:00Ясно и безоблачно+14°C83 %747 мм4.6 м/с2 %
    06:00Ясно и безоблачно+13°C78 %747 мм5.1 м/с2 %
    09:00Ясно и безоблачно+18°C64 %748 мм5.5 м/с2 %
    12:00Ясно и безоблачно+21°C57 %749 мм5.5 м/с2 %
    15:00Практически безоблачно+23°C52 %748 мм6.3 м/с11 %
    18:00Небольшая облачность+23°C52 %748 мм6.4 м/с21 %
    21:00Облачно с прояснениями+18°C61 %748 мм4.6 м/с6 %
  • 25мая
    Суббота
    +10°
    +24°
    Облачно с прояснениями
    ВремяПогодаТемператураВлажностьДавлениеВетер, м/сВероятность осадков
    00:00Ясно и безоблачно+15°C68 %748 мм4.6 м/с2 %
    03:00Практически безоблачно+12°C74 %748 мм4.0 м/с3 %
    06:00Облачно с прояснениями+11°C75 %747 мм4.1 м/с5 %
    09:00Небольшая облачность+18°C63 %748 мм4.6 м/с8 %
    12:00Облачно с прояснениями+22°C55 %748 мм4.9 м/с15 %
    15:00Облачно с прояснениями+23°C49 %747 мм6.0 м/с26 %
    18:00Облачно с прояснениями+23°C48 %747 мм4.8 м/с38 %
    21:00Небольшая облачность+19°C59 %746 мм3.6 м/с13 %
  • 26мая
    Воскресенье
    +10°
    +24°
    Ясно и безоблачно
    ВремяПогодаТемператураВлажностьДавлениеВетер, м/сВероятность осадков
    00:00Облачно с прояснениями+14°C61 %747 мм3.9 м/с8 %
    03:00Облачно с прояснениями+12°C63 %747 мм3.2 м/с12 %
    06:00Небольшая облачность+11°C70 %747 мм2.6 м/с11 %
    09:00Облачно с прояснениями+18°C59 %747 мм2.9 м/с11 %
    12:00Облачно с прояснениями+22°C37 %748 мм4.0 м/с12 %
    15:00Ясно и безоблачно+23°C36 %747 мм4.3 м/с15 %
    18:00Практически безоблачно+23°C37 %747 мм4.0 м/с14 %
    21:00Ясно и безоблачно+19°C58 %747 мм2.4 м/с11 %
Мы используем cookies
Соглашаюсь